createdAt,value
2024-04-18T14:02:43.112Z,3110.4
2024-04-18T14:03:45.346Z,4193.3
2024-04-18T14:04:47.614Z,3985.9
2024-04-18T14:05:49.270Z,3778.6
2024-04-18T14:06:51.274Z,4354.6
2024-04-18T14:07:52.889Z,3893.8
2024-04-18T14:08:54.420Z,4423.7
2024-04-18T14:09:56.041Z,4999.7
2024-04-18T14:10:58.349Z,4907.5
2024-04-18T14:12:00.087Z,4608
2024-04-18T14:13:01.663Z,4170.2
2024-04-18T14:14:03.394Z,4354.6
2024-04-18T14:15:05.354Z,4538.9
2024-04-18T14:16:06.945Z,3755.5
2024-04-18T14:17:08.532Z,3686.4
2024-04-18T14:18:11.276Z,4561.9
2024-04-18T14:19:12.990Z,4608
2024-04-18T14:20:14.623Z,4700.2
2024-04-18T14:21:17.261Z,4769.3
2024-04-18T14:22:18.900Z,4769.3
2024-04-18T14:23:20.565Z,4884.5
2024-04-18T14:24:22.546Z,4999.7
2024-04-18T14:25:24.317Z,4815.4
2024-04-18T14:26:25.850Z,5045.8
2024-04-18T14:27:27.746Z,5068.8
2024-04-18T14:28:34.746Z,4999.7
2024-04-18T14:29:36.379Z,4907.5
2024-04-18T14:30:39.005Z,4769.3
2024-04-18T14:31:40.743Z,4608
2024-04-18T14:32:43.071Z,4446.7
2024-04-18T14:33:45.749Z,4308.5
2024-04-18T14:34:47.722Z,3571.2
2024-04-18T14:35:49.392Z,3248.6
2024-04-18T14:36:51.177Z,2937.6
2024-04-18T14:37:55.888Z,2672.6
2024-04-18T14:38:56.252Z,2972.2
2024-04-18T14:39:57.938Z,3179.5
2024-04-18T14:41:13.802Z,2522.9
2024-04-18T14:42:16.103Z,2995.2
2024-04-18T14:43:17.874Z,3202.6
2024-04-18T14:44:19.609Z,2522.9
2024-04-18T14:45:21.854Z,2638.1
2024-04-18T14:46:24.099Z,2822.4
2024-04-18T14:47:25.714Z,2545.9
2024-04-18T14:48:27.700Z,2949.1
2024-04-18T14:49:29.305Z,3502.1
2024-04-18T14:50:30.862Z,3640.3
2024-04-18T14:51:33.188Z,3709.4
2024-04-18T14:52:34.975Z,3732.5
2024-04-18T14:53:36.648Z,3732.5
2024-04-18T14:54:38.899Z,3686.4
2024-04-18T14:55:40.490Z,3571.2
2024-04-18T14:56:42.034Z,3456
2024-04-18T14:57:43.959Z,3363.8
2024-04-18T14:58:45.607Z,3271.7
2024-04-18T14:59:47.212Z,3156.5
2024-04-18T15:00:49.746Z,3087.4
2024-04-18T15:01:51.516Z,3110.4
2024-04-18T15:02:53.702Z,3248.6
2024-04-18T15:03:56.812Z,3386.9
2024-04-18T15:04:59.481Z,3317.8
2024-04-18T15:06:01.591Z,3225.6
2024-04-18T15:07:03.610Z,3133.4
2024-04-18T15:08:05.456Z,2868.5
2024-04-18T15:09:07.626Z,3179.5
2024-04-18T15:10:09.298Z,3294.7
2024-04-18T15:11:11.442Z,2707.2
2024-04-18T15:12:13.853Z,2741.8
2024-04-18T15:13:15.996Z,2718.7
2024-04-18T15:14:17.570Z,2684.2
2024-04-18T15:15:19.747Z,2522.9
2024-04-18T15:16:21.572Z,2361.6
2024-04-18T15:17:23.710Z,2188.8
2024-04-18T15:18:26.060Z,1981.4
2024-04-18T15:19:27.791Z,1889.3
2024-04-18T15:20:29.665Z,1808.6
2024-04-18T15:21:31.902Z,1647.4
2024-04-18T15:22:33.485Z,1520.6
2024-04-18T15:23:35.034Z,1411.2
2024-04-18T15:24:37.373Z,1353.6
2024-04-18T15:25:39.391Z,1342.1
2024-04-18T15:26:40.984Z,1342.1
2024-04-18T15:27:42.948Z,1365.1
2024-04-18T15:28:44.287Z,1440
2024-04-18T15:29:45.890Z,1589.8
2024-04-18T15:30:48.222Z,1728
2024-04-18T15:31:50.137Z,1843.2
2024-04-18T15:32:51.779Z,1923.8
2024-04-18T15:33:53.546Z,1969.9
2024-04-18T15:34:54.586Z,1981.4
2024-04-18T15:35:56.665Z,2027.5
2024-04-18T15:36:58.247Z,2108.2
2024-04-18T15:37:59.879Z,2165.8
2024-04-18T15:39:01.489Z,2200.3
2024-04-18T15:40:03.419Z,2200.3
2024-04-18T15:41:05.016Z,2200.3
2024-04-18T15:42:06.972Z,2211.8
2024-04-18T15:43:08.544Z,2741.8
2024-04-18T15:44:09.721Z,2845.4
2024-04-18T15:45:11.428Z,2833.9
2024-04-18T15:46:12.865Z,2822.4
2024-04-18T15:47:14.903Z,2776.3
2024-04-18T15:48:18.007Z,2718.7
2024-04-18T15:49:19.824Z,2649.6
2024-04-18T15:50:21.667Z,2557.4
2024-04-18T15:51:23.744Z,2511.4
2024-04-18T15:52:25.305Z,2096.6
2024-04-18T15:53:26.846Z,2580.5
2024-04-18T15:54:28.274Z,2638.1
2024-04-18T15:55:29.970Z,2638.1
2024-04-18T15:56:31.538Z,2592
2024-04-18T15:57:33.851Z,2545.9
2024-04-18T15:58:35.589Z,2569
2024-04-18T15:59:37.181Z,2592
2024-04-18T16:00:38.962Z,2626.6
2024-04-18T16:01:40.701Z,2534.4
2024-04-18T16:02:43.453Z,2292.5
2024-04-18T16:03:45.535Z,2281
2024-04-18T16:04:47.992Z,1751
2024-04-18T16:05:49.692Z,1647.4
2024-04-18T16:06:51.295Z,1566.7
2024-04-18T16:07:53.211Z,1532.2
2024-04-18T16:08:54.860Z,1532.2
2024-04-18T16:09:56.508Z,1555.2
2024-04-18T16:10:58.252Z,1612.8
2024-04-18T16:12:00.412Z,1647.4
2024-04-18T16:13:01.986Z,1555.2
2024-04-18T16:14:06.214Z,1445.8
2024-04-18T16:15:07.928Z,1405.4
2024-04-18T16:16:09.693Z,1566.7
2024-04-18T16:17:11.133Z,1313.3
2024-04-18T16:18:12.939Z,1296
2024-04-18T16:19:14.559Z,1261.4
2024-04-18T16:20:16.403Z,1221.1
2024-04-18T16:21:18.299Z,1169.3
2024-04-18T16:22:20.319Z,1134.7
2024-04-18T16:23:21.981Z,1100.2
2024-04-18T16:24:24.149Z,1094.4
2024-04-18T16:25:26.197Z,1123.2
2024-04-18T16:26:27.788Z,1163.5
2024-04-18T16:27:29.808Z,1192.3
2024-04-18T16:28:31.131Z,1186.6
2024-04-18T16:29:32.910Z,1175
2024-04-18T16:30:35.052Z,1186.6
2024-04-18T16:31:37.568Z,1117.4
2024-04-18T16:32:39.489Z,1244.2
2024-04-18T16:33:41.217Z,1388.2
2024-04-18T16:34:42.959Z,1071.4
2024-04-18T16:35:44.558Z,1399.7
2024-04-18T16:37:22.915Z,1405.4
2024-04-18T16:38:23.223Z,1393.9
2024-04-18T16:39:24.543Z,1428.5
2024-04-18T16:40:26.407Z,1486.1
2024-04-18T16:41:27.963Z,1486.1
2024-04-18T16:42:29.811Z,1555.2
2024-04-18T16:43:33.394Z,1532.2
2024-04-18T16:44:34.235Z,1589.8
2024-04-18T16:45:36.793Z,1347.8
2024-04-18T16:46:38.414Z,1296
2024-04-18T16:47:40.647Z,1589.8
2024-04-18T16:48:43.130Z,1319
2024-04-18T16:49:44.380Z,1290.2
2024-04-18T16:50:46.124Z,1273
2024-04-18T16:51:47.354Z,1267.2
2024-04-18T16:52:48.934Z,1261.4
2024-04-18T16:53:50.570Z,1249.9
2024-04-18T16:54:52.140Z,1249.9
2024-04-18T16:55:53.789Z,1232.6
2024-04-18T16:56:55.316Z,1215.4
2024-04-18T16:57:56.883Z,1198.1
2024-04-18T16:58:58.514Z,1180.8
2024-04-18T17:00:00.162Z,1152
2024-04-18T17:01:02.404Z,1111.7
2024-04-18T17:02:04.047Z,1267.2
2024-04-18T17:03:06.502Z,1094.4
2024-04-18T17:04:09.122Z,967.7
2024-04-18T17:05:11.816Z,944.6
2024-04-18T17:06:13.724Z,921.6
2024-04-18T17:07:15.755Z,887
2024-04-18T17:08:17.436Z,852.5
2024-04-18T17:09:20.741Z,725.8
2024-04-18T17:10:22.567Z,691.2
2024-04-18T17:11:24.697Z,662.4
2024-04-18T17:12:26.723Z,639.4
2024-04-18T17:13:28.386Z,630.7
2024-04-18T17:14:29.969Z,625
2024-04-18T17:15:31.967Z,676.8
2024-04-18T17:16:33.592Z,688.3
2024-04-18T17:17:35.698Z,720
2024-04-18T17:18:38.872Z,728.6
2024-04-18T17:19:40.659Z,714.2
2024-04-18T17:20:42.229Z,699.8
2024-04-18T17:21:44.410Z,679.7
2024-04-18T17:22:46.039Z,622.1
2024-04-18T17:23:47.762Z,587.5
2024-04-18T17:24:50.099Z,622.1
2024-04-18T17:25:52.426Z,564.5
2024-04-18T17:26:54.112Z,564.5
2024-04-18T17:27:55.639Z,561.6
2024-04-18T17:28:57.176Z,567.4
2024-04-18T17:29:58.773Z,561.6
2024-04-18T17:31:00.338Z,550.1
2024-04-18T17:32:02.583Z,538.6
2024-04-18T17:33:05.561Z,529.9
2024-04-18T17:34:07.287Z,521.3
2024-04-18T17:35:08.836Z,504
2024-04-18T17:36:10.846Z,481
2024-04-18T17:37:12.663Z,463.7
2024-04-18T17:38:14.360Z,449.3
2024-04-18T17:39:16.374Z,437.8
2024-04-18T17:40:18.096Z,429.1
2024-04-18T17:41:19.912Z,417.6
2024-04-18T17:42:22.242Z,409
2024-04-18T17:43:23.931Z,400.3
2024-04-18T17:44:25.471Z,388.8
2024-04-18T17:45:27.623Z,377.3
2024-04-18T17:46:29.240Z,357.1
2024-04-18T17:47:31.266Z,332.6
2024-04-18T17:48:34.712Z,313.9
2024-04-18T17:49:36.745Z,302.4
2024-04-18T17:50:38.263Z,285.1
2024-04-18T17:51:40.409Z,269.3
2024-04-18T17:52:42.098Z,257.8
2024-04-18T17:53:43.749Z,243.4
2024-04-18T17:54:45.970Z,230.4
2024-04-18T17:55:53.322Z,216
2024-04-18T17:56:53.155Z,203
2024-04-18T17:57:54.686Z,191.5
2024-04-18T17:58:56.227Z,182.2
2024-04-18T17:59:57.882Z,174.2
2024-04-18T18:01:00.169Z,167.8
2024-04-18T18:02:02.110Z,158.4
2024-04-18T18:03:04.725Z,147.6
2024-04-18T18:04:07.489Z,137.5
2024-04-18T18:05:09.362Z,126.7
2024-04-18T18:06:11.111Z,118.1
2024-04-18T18:07:12.745Z,110.9
2024-04-18T18:08:14.234Z,103.7
2024-04-18T18:09:16.175Z,97.9
2024-04-18T18:10:17.773Z,92.9
2024-04-18T18:11:20.085Z,87.5
2024-04-18T18:12:22.241Z,81.7
2024-04-18T18:13:23.950Z,76.3
2024-04-18T18:14:25.476Z,70.9
2024-04-18T18:15:27.884Z,64.8
2024-04-18T18:16:29.487Z,59
2024-04-18T18:17:31.816Z,53.6
2024-04-18T18:18:41.628Z,49
2024-04-18T18:19:44.552Z,45.2
2024-04-18T18:20:46.440Z,41.4
2024-04-18T18:21:48.198Z,37.6
2024-04-18T18:22:49.744Z,34.2
2024-04-18T18:23:51.351Z,31.1
2024-04-18T18:24:53.068Z,28.6
2024-04-18T18:25:54.590Z,26.1
2024-04-18T18:26:56.353Z,23.8
2024-04-18T18:27:57.981Z,21.6
2024-04-18T18:28:59.719Z,19.4
2024-04-18T18:30:01.306Z,17.4
2024-04-18T18:31:03.157Z,15.4
2024-04-18T18:32:05.377Z,13.6
2024-04-18T18:33:08.002Z,11.9
2024-04-18T18:34:10.740Z,10.4
2024-04-18T18:35:12.405Z,9
2024-04-18T18:36:14.614Z,7.7
2024-04-18T18:37:16.253Z,6.7
2024-04-18T18:38:18.105Z,5.7
2024-04-18T18:39:20.210Z,4.9
2024-04-18T18:40:21.901Z,4.1
2024-04-18T18:41:23.481Z,3.4
2024-04-18T18:42:25.726Z,2.9
2024-04-18T18:43:27.392Z,2.5
2024-04-18T18:44:29.178Z,2.1
2024-04-18T18:45:31.330Z,1.7
2024-04-18T18:46:32.939Z,1.4
2024-04-18T18:47:34.741Z,1.3
2024-04-18T18:48:37.058Z,1
2024-04-18T18:49:38.850Z,0.9
2024-04-18T18:50:40.535Z,0.8
2024-04-18T18:51:42.561Z,0.6
2024-04-18T18:52:44.353Z,0.5
2024-04-18T18:53:45.938Z,0.4
2024-04-18T18:54:48.351Z,0.4
2024-04-18T18:55:50.249Z,0.3
2024-04-18T18:56:51.811Z,0.3
2024-04-18T18:57:53.989Z,0.2
2024-04-18T18:58:55.649Z,0.2
2024-04-18T18:59:57.364Z,0.2
2024-04-18T19:00:59.997Z,0.1
2024-04-18T19:02:01.701Z,0.1
2024-04-18T19:03:07.798Z,0.1
2024-04-18T19:04:10.286Z,0
2024-04-18T19:05:12.119Z,0
2024-04-18T19:06:14.115Z,0
2024-04-18T19:07:15.778Z,0
2024-04-18T19:08:17.624Z,0
2024-04-18T19:09:19.723Z,0
2024-04-18T19:10:21.894Z,0
2024-04-18T19:11:24.085Z,0
2024-04-18T19:12:26.350Z,0
2024-04-18T19:13:28.093Z,0
2024-04-18T19:14:29.882Z,0
2024-04-18T19:15:31.972Z,0
2024-04-18T19:16:34.175Z,0
2024-04-18T19:17:36.403Z,0
2024-04-18T19:18:38.442Z,0
2024-04-18T19:19:40.178Z,0
2024-04-18T19:20:41.764Z,0
2024-04-18T19:21:44.645Z,0
2024-04-18T19:22:46.278Z,0
2024-04-18T19:23:47.854Z,0
2024-04-18T19:24:50.098Z,0
2024-04-18T19:25:52.253Z,0
2024-04-18T19:26:53.787Z,0
2024-04-18T19:27:55.418Z,0
2024-04-18T19:28:57.094Z,0
2024-04-18T19:29:58.817Z,0
2024-04-18T19:31:00.435Z,0
2024-04-18T19:32:01.961Z,0
2024-04-18T19:33:04.436Z,0
2024-04-18T19:34:07.181Z,0
2024-04-18T19:35:15.581Z,0
2024-04-18T19:36:17.789Z,0
2024-04-18T19:37:19.425Z,0
2024-04-18T19:38:20.961Z,0
2024-04-18T19:39:23.131Z,0
2024-04-18T19:40:24.962Z,0
2024-04-18T19:41:26.571Z,0
2024-04-18T19:42:28.588Z,0
2024-04-18T19:43:30.220Z,0
2024-04-18T19:44:32.242Z,0
2024-04-18T19:45:34.392Z,0
2024-04-18T19:46:36.220Z,0
2024-04-18T19:47:38.361Z,0
2024-04-18T19:48:41.159Z,0
2024-04-18T19:49:42.817Z,0
2024-04-18T19:50:44.350Z,0
2024-04-18T19:51:46.557Z,0
2024-04-18T19:52:48.283Z,0
2024-04-18T19:53:50.152Z,0
2024-04-18T19:54:52.443Z,0
2024-04-18T19:55:54.103Z,0
2024-04-18T19:56:55.628Z,0
2024-04-18T19:57:57.242Z,0
2024-04-18T19:58:58.760Z,0
2024-04-18T20:00:00.844Z,0
2024-04-18T20:01:08.359Z,0
2024-04-18T20:02:10.730Z,0
2024-04-18T20:03:13.200Z,0
2024-04-18T20:04:15.793Z,0
2024-04-18T20:05:17.628Z,0
2024-04-18T20:06:19.876Z,0
2024-04-18T20:07:21.562Z,0
2024-04-18T20:08:23.129Z,0
2024-04-18T20:09:25.422Z,0
2024-04-18T20:10:27.017Z,0
2024-04-18T20:11:29.088Z,0
2024-04-18T20:12:30.958Z,0
2024-04-18T20:13:32.689Z,0
2024-04-18T20:14:34.395Z,0
2024-04-18T20:15:36.731Z,0
2024-04-18T20:16:38.366Z,0
2024-04-18T20:17:40.750Z,0
2024-04-18T20:18:43.615Z,0
2024-04-18T20:19:45.519Z,0
2024-04-18T20:20:47.137Z,0
2024-04-18T20:21:49.345Z,0
2024-04-18T20:22:50.948Z,0
2024-04-18T20:23:52.726Z,0
2024-04-18T20:24:54.882Z,0
2024-04-18T20:25:56.466Z,0
2024-04-18T20:26:58.046Z,0
2024-04-18T20:27:59.802Z,0
2024-04-18T20:29:01.472Z,0
2024-04-18T20:30:03.110Z,0
2024-04-18T20:31:04.823Z,0
2024-04-18T20:32:07.001Z,0
2024-04-18T20:33:09.477Z,0
2024-04-18T20:34:11.180Z,0
2024-04-18T20:35:13.134Z,0
2024-04-18T20:36:14.802Z,0
2024-04-18T20:37:16.348Z,0
2024-04-18T20:38:18.032Z,0
2024-04-18T20:39:20.622Z,0
2024-04-18T20:40:22.352Z,0
2024-04-18T20:41:23.912Z,0
2024-04-18T20:42:26.161Z,0
2024-04-18T20:43:27.803Z,0
2024-04-18T20:44:29.355Z,0
2024-04-18T20:45:33.457Z,0
2024-04-18T20:46:35.283Z,0
2024-04-18T20:47:37.773Z,0
2024-04-18T20:48:39.933Z,0
2024-04-18T20:49:41.760Z,0
2024-04-18T20:50:43.354Z,0
2024-04-18T20:51:45.451Z,0
2024-04-18T20:52:47.026Z,0
2024-04-18T20:53:48.635Z,0
2024-04-18T20:54:50.938Z,0
2024-04-18T20:55:52.621Z,0
2024-04-18T20:56:54.150Z,0
2024-04-18T20:57:56.437Z,0
2024-04-18T20:58:57.987Z,0
2024-04-18T20:59:59.573Z,0
2024-04-18T21:01:02.476Z,0
2024-04-18T21:02:05.173Z,0
2024-04-18T21:03:07.808Z,0
2024-04-18T21:04:10.563Z,0
2024-04-18T21:05:12.709Z,0
2024-04-18T21:06:15.073Z,0
2024-04-18T21:07:17.068Z,0
2024-04-18T21:08:19.038Z,0
2024-04-18T21:09:21.751Z,0
2024-04-18T21:10:23.617Z,0
2024-04-18T21:11:26.133Z,0
2024-04-18T21:12:28.666Z,0
2024-04-18T21:13:31.113Z,0
2024-04-18T21:14:33.166Z,0
2024-04-18T21:15:35.516Z,0
2024-04-18T21:16:37.504Z,0
2024-04-18T21:17:40.358Z,0
2024-04-18T21:18:43.977Z,0
2024-04-18T21:19:46.727Z,0
2024-04-18T21:20:48.663Z,0
2024-04-18T21:21:51.324Z,0
2024-04-18T21:22:53.338Z,0
2024-04-18T21:23:55.312Z,0
2024-04-18T21:24:57.249Z,0
2024-04-18T21:25:59.350Z,0
2024-04-18T21:27:01.528Z,0
2024-04-18T21:28:03.506Z,0
2024-04-18T21:29:05.610Z,0
2024-04-18T21:30:07.771Z,0
2024-04-18T21:31:09.820Z,0
2024-04-18T21:32:11.965Z,0
2024-04-18T21:33:15.181Z,0
2024-04-18T21:34:17.253Z,0
2024-04-18T21:35:19.038Z,0
2024-04-18T21:36:21.407Z,0
2024-04-18T21:37:23.498Z,0
2024-04-18T21:38:25.475Z,0
2024-04-18T21:39:28.122Z,0
2024-04-18T21:40:30.137Z,0
2024-04-18T21:41:32.262Z,0
2024-04-18T21:42:34.703Z,0
2024-04-18T21:43:36.774Z,0
2024-04-18T21:44:38.763Z,0
2024-04-18T21:45:41.385Z,0
2024-04-18T21:46:43.696Z,0
2024-04-18T21:47:46.657Z,0
2024-04-18T21:48:50.663Z,0
2024-04-18T21:49:52.287Z,0
2024-04-18T21:50:54.179Z,0
2024-04-18T21:51:56.133Z,0
2024-04-18T21:52:58.180Z,0
2024-04-18T21:54:00.334Z,0
2024-04-18T21:55:02.498Z,0
2024-04-18T21:56:04.595Z,0
2024-04-18T21:57:06.615Z,0
2024-04-18T21:58:08.574Z,0
2024-04-18T21:59:10.569Z,0
2024-04-18T22:00:13.404Z,0
2024-04-18T22:01:16.619Z,0
2024-04-18T22:02:19.045Z,0
2024-04-18T22:03:21.995Z,0
2024-04-18T22:04:25.011Z,0
2024-04-18T22:05:26.668Z,0
2024-04-18T22:06:28.927Z,0
2024-04-18T22:07:31.028Z,0
2024-04-18T22:08:33.033Z,0
2024-04-18T22:09:36.096Z,0
2024-04-18T22:10:38.123Z,0
2024-04-18T22:11:40.557Z,0
2024-04-18T22:12:43.121Z,0
2024-04-18T22:13:45.081Z,0
2024-04-18T22:14:46.989Z,0
2024-04-18T22:15:49.574Z,0
2024-04-18T22:16:51.657Z,0
2024-04-18T22:17:54.640Z,0
2024-04-18T22:18:57.776Z,0
2024-04-18T22:19:59.847Z,0
2024-04-18T22:21:02.103Z,0
2024-04-18T22:22:04.064Z,0
2024-04-18T22:23:06.039Z,0
2024-04-18T22:24:08.251Z,0
2024-04-18T22:25:10.353Z,0
2024-04-18T22:26:12.287Z,0
2024-04-18T22:27:14.817Z,0
2024-04-18T22:28:17.661Z,0
2024-04-18T22:29:19.830Z,0
2024-04-18T22:30:22.211Z,0
2024-04-18T22:31:23.986Z,0
2024-04-18T22:32:26.573Z,0
2024-04-18T22:33:29.854Z,0
2024-04-18T22:34:40.465Z,0
2024-04-18T22:35:43.254Z,0
2024-04-18T22:36:45.924Z,0
2024-04-18T22:37:47.781Z,0
2024-04-18T22:38:49.901Z,0
2024-04-18T22:39:51.980Z,0
2024-04-18T22:40:54.210Z,0
2024-04-18T22:41:56.513Z,0
2024-04-18T22:42:58.614Z,0
2024-04-18T22:44:00.799Z,0
2024-04-18T22:45:03.045Z,0
2024-04-18T22:46:05.130Z,0
2024-04-18T22:47:07.068Z,0
2024-04-18T22:48:10.201Z,0
2024-04-18T22:49:12.398Z,0
2024-04-18T22:50:14.411Z,0
2024-04-18T22:51:16.863Z,0
2024-04-18T22:52:18.939Z,0
2024-04-18T22:53:20.899Z,0
2024-04-18T22:54:23.299Z,0
2024-04-18T22:55:25.389Z,0
2024-04-18T22:56:27.497Z,0
2024-04-18T22:57:30.005Z,0
2024-04-18T22:58:32.154Z,0
2024-04-18T22:59:34.089Z,0
2024-04-18T23:00:36.929Z,0
2024-04-18T23:01:39.878Z,0
2024-04-18T23:02:42.133Z,0
2024-04-18T23:03:44.875Z,0
2024-04-18T23:04:47.010Z,0
2024-04-18T23:05:48.966Z,0
2024-04-18T23:06:51.589Z,0
2024-04-18T23:07:53.660Z,0
2024-04-18T23:08:55.587Z,0
2024-04-18T23:09:57.697Z,0
2024-04-18T23:11:00.222Z,0
2024-04-18T23:12:02.290Z,0
2024-04-18T23:13:04.329Z,0
2024-04-18T23:14:06.319Z,0
2024-04-18T23:15:08.284Z,0
2024-04-18T23:16:10.222Z,0
2024-04-18T23:17:12.383Z,0
2024-04-18T23:18:15.805Z,0
2024-04-18T23:19:18.373Z,0
2024-04-18T23:20:20.324Z,0
2024-04-18T23:21:22.675Z,0
2024-04-18T23:22:24.872Z,0
2024-04-18T23:23:26.910Z,0
2024-04-18T23:24:29.941Z,0
2024-04-18T23:25:31.990Z,0
2024-04-18T23:26:33.965Z,0
2024-04-18T23:27:36.331Z,0
2024-04-18T23:28:38.304Z,0
2024-04-18T23:29:40.280Z,0
2024-04-18T23:30:43.018Z,0
2024-04-18T23:31:45.066Z,0
2024-04-18T23:32:48.229Z,0
2024-04-18T23:33:50.541Z,0
2024-04-18T23:34:53.380Z,0
2024-04-18T23:35:55.450Z,0
2024-04-18T23:36:57.418Z,0
2024-04-18T23:37:59.554Z,0
2024-04-18T23:39:02.227Z,0
2024-04-18T23:40:04.415Z,0
2024-04-18T23:41:06.350Z,0
2024-04-18T23:42:08.322Z,0
2024-04-18T23:43:10.279Z,0
2024-04-18T23:44:12.741Z,0
2024-04-18T23:45:14.979Z,0
2024-04-18T23:46:17.056Z,0
2024-04-18T23:47:19.053Z,0
2024-04-18T23:48:21.967Z,0
2024-04-18T23:49:24.381Z,0
2024-04-18T23:50:26.370Z,0
2024-04-18T23:51:29.061Z,0
2024-04-18T23:52:31.190Z,0
2024-04-18T23:53:33.420Z,0
2024-04-18T23:54:35.998Z,0
2024-04-18T23:55:37.978Z,0
2024-04-18T23:56:39.972Z,0
2024-04-18T23:57:42.888Z,0
2024-04-18T23:58:44.816Z,0
2024-04-18T23:59:46.833Z,0
